createdAt,value
2018-12-10T00:01:05.666Z,79.44
2018-12-10T00:06:09.182Z,79.42
2018-12-10T00:11:12.375Z,78.84
2018-12-10T00:16:15.762Z,78.93
2018-12-10T00:21:18.946Z,79.90
2018-12-10T00:26:22.323Z,80.11
2018-12-10T00:31:25.594Z,80.93
2018-12-10T00:36:28.912Z,81.04
2018-12-10T00:41:32.371Z,80.78
2018-12-10T00:46:35.541Z,81.05
2018-12-10T00:51:38.994Z,81.65
2018-12-10T00:56:42.199Z,83.41
2018-12-10T01:01:45.459Z,84.22
2018-12-10T01:06:48.736Z,84.54
2018-12-10T01:11:51.865Z,84.79
2018-12-10T01:16:55.184Z,83.85
2018-12-10T01:21:58.567Z,83.86
2018-12-10T01:27:02.039Z,84.84
2018-12-10T01:32:05.651Z,85.72
2018-12-10T01:37:09.074Z,85.09
2018-12-10T01:42:12.441Z,85.51
2018-12-10T01:47:15.750Z,85.27
2018-12-10T01:52:19.040Z,84.75
2018-12-10T01:57:22.418Z,84.70
2018-12-10T02:02:25.617Z,84.93
2018-12-10T02:07:28.796Z,85.80
2018-12-10T02:12:32.136Z,85.55
2018-12-10T02:17:35.326Z,84.93
2018-12-10T02:22:38.573Z,84.93
2018-12-10T02:27:41.674Z,84.73
2018-12-10T02:32:44.908Z,84.96
2018-12-10T02:37:48.306Z,84.49
2018-12-10T02:42:51.650Z,84.32
2018-12-10T02:47:54.909Z,84.18
2018-12-10T02:52:58.269Z,85.03
2018-12-10T02:58:01.416Z,84.28
2018-12-10T03:03:04.673Z,82.76
2018-12-10T03:08:07.834Z,82.90
2018-12-10T03:13:11.095Z,81.88
2018-12-10T03:18:14.390Z,81.33
2018-12-10T03:23:17.697Z,81.97
2018-12-10T03:28:20.856Z,80.86
2018-12-10T03:33:23.995Z,80.41
2018-12-10T03:38:27.450Z,80.17
2018-12-10T03:43:30.617Z,80.39
2018-12-10T03:48:33.857Z,79.82
2018-12-10T03:53:37.056Z,80.02
2018-12-10T03:58:40.391Z,78.69
2018-12-10T04:03:43.533Z,78.95
2018-12-10T04:08:46.912Z,78.91
2018-12-10T04:13:50.301Z,79.62
2018-12-10T04:18:53.795Z,79.06
2018-12-10T04:23:57.325Z,79.41
2018-12-10T04:29:00.644Z,79.51
2018-12-10T04:34:03.902Z,79.15
2018-12-10T04:39:07.640Z,77.95
2018-12-10T04:44:10.869Z,78.36
2018-12-10T04:49:14.213Z,78.17
2018-12-10T04:54:17.515Z,78.66
2018-12-10T04:59:20.939Z,78.80
2018-12-10T05:04:24.089Z,78.42
2018-12-10T05:09:27.315Z,78.98
2018-12-10T05:14:30.540Z,79.20
2018-12-10T05:19:33.689Z,78.74
2018-12-10T05:24:36.842Z,79.64
2018-12-10T05:29:40.080Z,79.94
2018-12-10T05:34:43.416Z,79.62
2018-12-10T05:39:46.683Z,79.79
2018-12-10T05:44:49.917Z,80.13
2018-12-10T05:49:53.108Z,79.79
2018-12-10T05:54:57.176Z,80.61
2018-12-10T06:00:00.425Z,80.05
2018-12-10T06:05:04.636Z,80.06
2018-12-10T06:10:07.803Z,79.67
2018-12-10T06:15:10.967Z,79.79
2018-12-10T06:20:14.168Z,80.53
2018-12-10T06:25:17.290Z,81.42
2018-12-10T06:30:20.535Z,82.58
2018-12-10T06:35:23.789Z,81.83
2018-12-10T06:40:26.924Z,82.24
2018-12-10T06:45:30.089Z,82.11
2018-12-10T06:50:33.397Z,81.76
2018-12-10T06:55:36.544Z,83.17
2018-12-10T07:00:39.808Z,83.01
2018-12-10T07:05:43.220Z,83.53
2018-12-10T07:10:46.541Z,83.48
2018-12-10T07:15:49.729Z,84.12
2018-12-10T07:20:52.950Z,83.96
2018-12-10T07:25:56.357Z,85.48
2018-12-10T07:31:00.361Z,83.81
2018-12-10T07:36:04.133Z,83.44
2018-12-10T07:41:08.202Z,84.63
2018-12-10T07:46:11.509Z,84.06
2018-12-10T07:51:20.438Z,83.91
2018-12-10T07:56:28.951Z,82.26
2018-12-10T08:01:30.929Z,83.10
2018-12-10T08:06:34.232Z,81.87
2018-12-10T08:11:37.657Z,82.92
2018-12-10T08:16:41.757Z,80.48
2018-12-10T08:21:44.938Z,78.89
2018-12-10T08:26:53.714Z,78.34
2018-12-10T08:31:56.993Z,78.76
2018-12-10T08:37:00.635Z,79.10
2018-12-10T08:42:03.968Z,79.49
2018-12-10T08:47:07.531Z,79.70
2018-12-10T08:52:14.807Z,80.10
2018-12-10T08:57:18.181Z,80.99
2018-12-10T09:02:21.346Z,81.54
2018-12-10T09:07:24.716Z,81.06
2018-12-10T09:12:30.053Z,80.36
2018-12-10T09:17:33.574Z,79.11
2018-12-10T09:22:36.927Z,78.84
2018-12-10T09:27:40.184Z,78.01
2018-12-10T09:32:43.401Z,79.23
2018-12-10T09:37:46.594Z,77.03
2018-12-10T09:42:49.783Z,75.85
2018-12-10T09:47:53.362Z,75.53
2018-12-10T09:52:56.670Z,74.60
2018-12-10T09:57:59.864Z,75.23
2018-12-10T10:03:03.188Z,72.01
2018-12-10T10:08:06.596Z,69.41
2018-12-10T10:13:09.885Z,69.33
2018-12-10T10:18:13.242Z,71.27
2018-12-10T10:23:16.425Z,73.57
2018-12-10T10:28:20.169Z,73.88
2018-12-10T10:33:23.344Z,75.04
2018-12-10T10:38:26.612Z,73.74
2018-12-10T10:43:29.777Z,75.01
2018-12-10T10:48:33.106Z,74.92
2018-12-10T10:53:36.374Z,72.84
2018-12-10T10:58:39.917Z,72.59
2018-12-10T11:03:43.216Z,71.08
2018-12-10T11:08:46.425Z,70.96
2018-12-10T11:13:49.651Z,72.06
2018-12-10T11:18:53.066Z,71.84
2018-12-10T11:23:56.326Z,71.04
2018-12-10T11:28:59.654Z,71.01
2018-12-10T11:34:02.970Z,69.27
2018-12-10T11:39:07.232Z,69.59
2018-12-10T11:44:10.490Z,70.20
2018-12-10T11:49:13.679Z,69.23
2018-12-10T11:54:16.951Z,70.00
2018-12-10T11:59:20.171Z,69.93
2018-12-10T12:04:23.576Z,70.66
2018-12-10T12:09:26.859Z,70.72
2018-12-10T12:14:30.353Z,69.88
2018-12-10T12:19:34.119Z,70.33
2018-12-10T12:24:37.524Z,69.88
2018-12-10T12:29:41.570Z,69.80
2018-12-10T12:34:48.029Z,70.23
2018-12-10T12:39:51.506Z,70.44
2018-12-10T12:44:54.711Z,70.65
2018-12-10T12:49:57.968Z,73.50
2018-12-10T12:55:01.357Z,72.49
2018-12-10T13:00:05.736Z,72.99
2018-12-10T13:05:09.073Z,73.17
2018-12-10T13:10:12.525Z,71.98
2018-12-10T13:15:15.928Z,71.56
2018-12-10T13:20:19.280Z,71.35
2018-12-10T13:25:22.570Z,71.29
2018-12-10T13:30:26.043Z,69.88
2018-12-10T13:35:29.428Z,70.02
2018-12-10T13:40:32.695Z,69.78
2018-12-10T13:45:36.078Z,70.68
2018-12-10T13:50:39.479Z,70.29
2018-12-10T13:55:42.710Z,70.96
2018-12-10T14:00:50.884Z,70.49
2018-12-10T14:05:51.558Z,72.25
2018-12-10T14:10:55.721Z,71.84
2018-12-10T14:15:59.988Z,72.07
2018-12-10T14:21:05.382Z,72.92
2018-12-10T14:26:08.762Z,73.87
2018-12-10T14:31:12.062Z,74.47
2018-12-10T14:36:15.771Z,74.99
2018-12-10T14:41:19.123Z,74.81
2018-12-10T14:46:23.193Z,74.83
2018-12-10T14:51:26.315Z,75.97
2018-12-10T14:56:30.007Z,76.05
2018-12-10T15:01:33.286Z,76.02
2018-12-10T15:06:37.382Z,76.33
2018-12-10T15:11:40.522Z,74.92
2018-12-10T15:16:43.689Z,74.95
2018-12-10T15:21:47.158Z,74.97
2018-12-10T15:26:51.340Z,74.58
2018-12-10T15:31:54.634Z,75.00
2018-12-10T15:36:58.818Z,78.49
2018-12-10T15:42:02.026Z,79.13
2018-12-10T15:47:05.277Z,81.25
2018-12-10T15:52:08.661Z,81.11
2018-12-10T15:57:12.094Z,82.54
2018-12-10T16:02:16.229Z,82.47
2018-12-10T16:07:19.548Z,83.62
2018-12-10T16:12:22.717Z,87.49
2018-12-10T16:17:26.573Z,90.40
2018-12-10T16:22:29.723Z,93.65
2018-12-10T16:27:33.284Z,95.25
2018-12-10T16:32:36.563Z,93.98
2018-12-10T16:37:39.794Z,94.32
2018-12-10T16:42:43.360Z,94.27
2018-12-10T16:47:47.145Z,94.58
2018-12-10T16:52:50.458Z,93.18
2018-12-10T16:57:59.284Z,92.80
2018-12-10T17:03:03.170Z,91.82
2018-12-10T17:08:12.166Z,91.20
2018-12-10T17:13:15.549Z,91.42
2018-12-10T17:18:24.318Z,91.49
2018-12-10T17:23:27.576Z,90.79
2018-12-10T17:28:36.572Z,90.66
2018-12-10T17:33:39.858Z,89.72
2018-12-10T17:38:48.669Z,90.67
2018-12-10T17:43:52.032Z,89.95
2018-12-10T17:49:00.867Z,90.62
2018-12-10T17:54:06.956Z,90.38
2018-12-10T17:59:10.194Z,88.89
2018-12-10T18:04:13.471Z,88.73
2018-12-10T18:09:16.613Z,88.71
2018-12-10T18:14:19.847Z,87.91
2018-12-10T18:19:23.168Z,87.61
2018-12-10T18:24:26.728Z,86.76
2018-12-10T18:29:31.082Z,87.15
2018-12-10T18:34:34.372Z,87.78
2018-12-10T18:39:42.934Z,87.96
2018-12-10T18:44:47.400Z,88.43
2018-12-10T18:49:50.710Z,87.79
2018-12-10T18:54:53.879Z,88.27
2018-12-10T18:59:57.143Z,88.09
2018-12-10T19:05:00.448Z,88.70
2018-12-10T19:10:04.419Z,88.70
2018-12-10T19:15:09.223Z,89.15
2018-12-10T19:20:13.720Z,89.20
2018-12-10T19:25:17.165Z,88.64
2018-12-10T19:30:20.952Z,88.98
2018-12-10T19:35:25.007Z,89.05
2018-12-10T19:40:28.589Z,91.29
2018-12-10T19:45:31.988Z,91.78
2018-12-10T19:50:35.315Z,93.14
2018-12-10T19:55:38.678Z,94.07
2018-12-10T20:00:42.109Z,93.71
2018-12-10T20:05:45.568Z,94.36
2018-12-10T20:10:51.482Z,93.45
2018-12-10T20:15:58.078Z,92.95
2018-12-10T20:21:03.492Z,91.74
2018-12-10T20:26:06.991Z,91.76
2018-12-10T20:31:10.344Z,93.75
2018-12-10T20:36:13.543Z,95.11
2018-12-10T20:41:16.704Z,95.59
2018-12-10T20:46:22.101Z,95.24
2018-12-10T20:51:25.279Z,95.87
2018-12-10T20:56:28.448Z,95.35
2018-12-10T21:01:31.730Z,94.59
2018-12-10T21:06:35.006Z,95.36
2018-12-10T21:11:41.343Z,95.40
2018-12-10T21:16:47.556Z,95.66
2018-12-10T21:21:54.574Z,95.91
2018-12-10T21:27:02.152Z,95.80
2018-12-10T21:32:05.718Z,95.82
2018-12-10T21:37:09.055Z,96.25
2018-12-10T21:42:12.334Z,95.36
2018-12-10T21:47:15.852Z,95.54
2018-12-10T21:52:19.023Z,95.57
2018-12-10T21:57:22.284Z,95.09
2018-12-10T22:02:29.740Z,95.20
2018-12-10T22:07:36.843Z,94.61
2018-12-10T22:12:43.832Z,94.84
2018-12-10T22:17:50.242Z,94.53
2018-12-10T22:22:56.029Z,94.81
2018-12-10T22:28:02.058Z,94.77
2018-12-10T22:33:05.396Z,96.22
2018-12-10T22:38:08.615Z,95.84
2018-12-10T22:43:11.837Z,95.99
2018-12-10T22:48:14.967Z,95.42
2018-12-10T22:53:18.116Z,94.61
2018-12-10T22:58:21.343Z,94.47
2018-12-10T23:03:24.499Z,94.11
2018-12-10T23:08:27.668Z,92.83
2018-12-10T23:13:30.971Z,92.05
2018-12-10T23:18:34.130Z,91.91
2018-12-10T23:23:37.338Z,90.76
2018-12-10T23:28:40.526Z,91.39
2018-12-10T23:33:43.727Z,90.37
2018-12-10T23:38:46.980Z,90.66
2018-12-10T23:43:50.201Z,90.66
2018-12-10T23:48:53.396Z,90.60
2018-12-10T23:53:56.590Z,89.93
2018-12-10T23:58:59.917Z,89.58
